• Join FlightAware (Why Join?)
  • Login
  • US Flag 
11:07PM EDT


 

Airport Tracker/Info


-or-


 

Live Flight TrackerFlight Track Log ✈ SWA2702 ✈ 15-Apr-2013 ✈ KSNA - KSFO

Flight Track Log - Related Links

Times and Time Zones

All times are in EDT time to prevent confusion due to time zone crossing. See the SWA2702 flight status page for this flight to view local times or setup timezone preferences in your user account.

Time Position Orientation Groundspeed Altitude Reporting Facility
EDT Latitude Longitude Course Direction KTS MPH feet Rate Location/Type
11:09AM 33.6500 -117.8833 203° Southwest 138 159 1,700  Level Southern California TRACON
11:10AM 33.6167 -117.9000 203° Southwest 150 173 3,200 1,260 Climbing Southern California TRACON
11:10AM 33.5919 -117.8972 175° South 148 170 3,700 2,460 Climbing Los Angeles Center
11:11AM 33.5342 -117.9233 201° Southwest 208 239 7,200 3,060 Climbing Los Angeles Center
11:12AM 33.4706 -117.9664 209° Southwest 251 289 10,100 3,240 Climbing Los Angeles Center
11:13AM 33.4425 -118.0747 253° West 285 328 14,000 3,240 Climbing Los Angeles Center
11:14AM 33.4217 -118.1761 256° West 304 350 16,900 2,700 Climbing Los Angeles Center
11:15AM 33.4094 -118.2903 263° West 337 388 19,600 2,700 Climbing Los Angeles Center
11:16AM 33.4769 -118.3825 311° West 363 418 22,600 2,100 Climbing Los Angeles Center
11:18AM 33.5472 -118.4767 312° West 372 428 24,000 660 Climbing Los Angeles Center
11:19AM 33.6183 -118.5708 312° West 376 433 24,000  Level Los Angeles Center
11:20AM 33.6883 -118.6650 312° West 373 429 24,000 660 Level Los Angeles Center
11:21AM 33.7597 -118.7603 312° West 379 436 25,400 1,920 Climbing Los Angeles Center
11:22AM 33.8486 -118.8775 312° West 394 453 28,000 1,980 Climbing Los Angeles Center
11:23AM 33.9233 -118.9797 311° West 404 465 29,600 1,560 Climbing Los Angeles Center
11:24AM 34.0036 -119.0861 312° West 425 489 31,300 1,740 Climbing Los Angeles Center
11:25AM 34.0825 -119.1925 312° West 425 489 33,300 1,740 Climbing Los Angeles Center
11:26AM 34.1603 -119.2981 312° West 423 487 35,000 1,740 Climbing Los Angeles Center
11:27AM 34.2383 -119.4044 312° West 422 486 37,000 1,860 Climbing Los Angeles Center
11:28AM 34.3275 -119.5258 312° West 404 465 38,900 1,380 Climbing Los Angeles Center
11:29AM 34.4019 -119.6272 312° West 402 463 39,900 480 Climbing Los Angeles Center
11:30AM 34.4750 -119.7283 311° West 400 460 40,000  Climbing Los Angeles Center
11:31AM 34.5539 -119.8233 315° West 400 460 40,000  Level Los Angeles Center
11:32AM 34.6506 -119.9256 319° Northwest 409 471 40,000  Level Los Angeles Center
11:33AM 34.7339 -120.0172 318° Northwest 405 466 40,000  Level Los Angeles Center
11:34AM 34.8217 -120.1111 319° Northwest 405 466 40,000  Level Los Angeles Center
11:35AM 34.9028 -120.2019 317° Northwest 401 461 40,000  Level Los Angeles Center
11:36AM 34.9853 -120.2922 318° Northwest 401 461 40,000  Level Los Angeles Center
11:37AM 35.0686 -120.3825 318° Northwest 403 464 40,000  Level Los Angeles Center
11:38AM 35.1494 -120.4728 318° Northwest 399 459 40,000  Level Los Angeles Center
11:39AM 35.2469 -120.5806 318° Northwest 397 457 40,000  Level Los Angeles Center
11:40AM 35.3286 -120.6736 317° Northwest 402 463 40,000  Level Los Angeles Center
11:41AM 35.4200 -120.7539 324° Northwest 406 467 40,000  Level Los Angeles Center
11:42AM 35.5111 -120.8353 324° Northwest 407 468 40,000  Level Los Angeles Center
11:43AM 35.6022 -120.9175 324° Northwest 407 468 40,000  Level Los Angeles Center
11:44AM 35.6994 -121.0039 324° Northwest 403 464 40,000  Level Los Angeles Center
11:45AM 35.7889 -121.0850 324° Northwest 399 459 40,000 -240 Level Los Angeles Center
11:46AM 35.8961 -121.1819 324° Northwest 398 458 39,600 -1,140 Descending Los Angeles Center
11:48AM 35.9831 -121.2625 323° Northwest 392 451 37,700 -2,220 Descending Oakland Center
11:49AM 36.0706 -121.3425 324° Northwest 390 449 35,000 -1,920 Descending Oakland Center
11:50AM 36.1572 -121.4206 324° Northwest 385 443 33,800 -1,200 Descending Oakland Center
11:51AM 36.2433 -121.4994 324° Northwest 385 443 32,600 -1,860 Descending Oakland Center
11:52AM 36.3292 -121.5786 323° Northwest 384 442 30,100 -2,640 Descending Oakland Center
11:53AM 36.4261 -121.6692 323° Northwest 367 422 27,300 -2,460 Descending Oakland Center
11:54AM 36.5167 -121.7500 324° Northwest 356 410 24,900 -2,040 Descending Northern Cal TRACON
11:55AM 36.5833 -121.8167 321° Northwest 338 389 23,000 -1,980 Descending Northern Cal TRACON
11:56AM 36.6667 -121.8833 327° Northwest 340 391 21,000 -2,100 Descending Northern Cal TRACON
11:57AM 36.7333 -121.9500 321° Northwest 326 375 19,100 -2,100 Descending Northern Cal TRACON
11:58AM 36.8167 -121.9833 342° North 327 376 17,100 -1,980 Descending Northern Cal TRACON
11:59AM 36.9167 -122.0000 352° North 313 360 15,000 -1,980 Descending Northern Cal TRACON
12:00PM 37.0000 -122.0333 342° North 298 343 13,000 -2,040 Descending Northern Cal TRACON
12:01PM 37.0667 -122.0500 349° North 287 330 11,200 -1,500 Descending Northern Cal TRACON
12:02PM 37.1500 -122.0667 351° North 285 328 10,200 -1,080 Descending Northern Cal TRACON
12:03PM 37.2167 -122.0833 349° North 254 292 9,200 -1,020 Descending Northern Cal TRACON
12:03PM 37.2175 -122.0875 284° West 261 300 9,000 -1,200 Descending Oakland Center
12:04PM 37.2847 -122.1056 348° North 250 288 7,600 -1,140 Descending Oakland Center
12:05PM 37.3592 -122.1247 348° North 227 261 6,700 -1,020 Descending Oakland Center
12:06PM 37.4000 -122.1167 North 218 251 6,000 -1,140 Descending Northern Cal TRACON
12:07PM 37.4500 -122.1167 360° North 213 245 5,000 -1,080 Descending Northern Cal TRACON
12:08PM 37.5000 -122.1167 360° North 215 247 4,000 -1,080 Descending Northern Cal TRACON
12:08PM 37.5208 -122.1456 312° West 206 237 3,400 -780 Descending Oakland Center
12:09PM 37.5444 -122.2014 298° West 192 221 2,800 -780 Descending Oakland Center
12:10PM 37.5647 -122.2500 298° West 174 200 1,900 -840 Descending Oakland Center
12:11PM 37.5847 -122.2969 298° West 162 186 1,100 -780 Descending Oakland Center
12:12PM 37.6003 -122.3361 297° West 143 165 400 10,260 Descending Oakland Center
12:13PM 37.6178 -122.3756 299° West 131 151 22,000 21,240 Climbing Oakland Center
12:15PM 37.6167 -122.3667 322° Northwest  Level FlightAware Approximate